sensor_id;sensor_type;location;lat;lon;timestamp;P1;durP1;ratioP1;P2;durP2;ratioP2
7707;SDS011;3896;48.758;8.888;2023-02-28T00:00:39;3.07;;;2.10;;
7707;SDS011;3896;48.758;8.888;2023-02-28T00:03:04;2.00;;;1.80;;
7707;SDS011;3896;48.758;8.888;2023-02-28T00:05:30;2.40;;;2.17;;
7707;SDS011;3896;48.758;8.888;2023-02-28T00:07:56;2.27;;;2.07;;
7707;SDS011;3896;48.758;8.888;2023-02-28T00:10:23;2.60;;;2.10;;
7707;SDS011;3896;48.758;8.888;2023-02-28T00:12:51;3.43;;;2.63;;
7707;SDS011;3896;48.758;8.888;2023-02-28T00:15:19;3.00;;;2.70;;
7707;SDS011;3896;48.758;8.888;2023-02-28T00:17:44;3.93;;;2.00;;
7707;SDS011;3896;48.758;8.888;2023-02-28T00:20:11;3.83;;;2.20;;
7707;SDS011;3896;48.758;8.888;2023-02-28T00:22:38;2.43;;;2.23;;
7707;SDS011;3896;48.758;8.888;2023-02-28T00:25:09;3.27;;;1.90;;
7707;SDS011;3896;48.758;8.888;2023-02-28T00:27:36;3.77;;;2.20;;
7707;SDS011;3896;48.758;8.888;2023-02-28T00:30:03;2.30;;;2.10;;
7707;SDS011;3896;48.758;8.888;2023-02-28T00:32:29;4.70;;;2.17;;
7707;SDS011;3896;48.758;8.888;2023-02-28T00:34:55;3.73;;;2.27;;
7707;SDS011;3896;48.758;8.888;2023-02-28T00:37:21;3.43;;;2.13;;
7707;SDS011;3896;48.758;8.888;2023-02-28T00:39:47;2.50;;;2.17;;
7707;SDS011;3896;48.758;8.888;2023-02-28T00:42:12;2.90;;;2.60;;
7707;SDS011;3896;48.758;8.888;2023-02-28T00:44:38;3.60;;;2.20;;
7707;SDS011;3896;48.758;8.888;2023-02-28T00:47:03;2.33;;;2.13;;
7707;SDS011;3896;48.758;8.888;2023-02-28T00:49:29;5.23;;;2.40;;
7707;SDS011;3896;48.758;8.888;2023-02-28T00:51:55;3.10;;;2.30;;
7707;SDS011;3896;48.758;8.888;2023-02-28T00:54:21;3.97;;;2.20;;
7707;SDS011;3896;48.758;8.888;2023-02-28T00:56:47;2.60;;;2.13;;
7707;SDS011;3896;48.758;8.888;2023-02-28T00:59:14;2.50;;;2.27;;
7707;SDS011;3896;48.758;8.888;2023-02-28T01:01:42;2.43;;;2.00;;
7707;SDS011;3896;48.758;8.888;2023-02-28T01:04:07;3.27;;;2.37;;
7707;SDS011;3896;48.758;8.888;2023-02-28T01:06:33;3.23;;;2.63;;
7707;SDS011;3896;48.758;8.888;2023-02-28T01:08:59;3.83;;;2.60;;
7707;SDS011;3896;48.758;8.888;2023-02-28T01:11:25;2.47;;;1.93;;
7707;SDS011;3896;48.758;8.888;2023-02-28T01:13:51;4.23;;;2.60;;
7707;SDS011;3896;48.758;8.888;2023-02-28T01:16:16;2.00;;;1.90;;
7707;SDS011;3896;48.758;8.888;2023-02-28T01:18:42;2.13;;;1.93;;
7707;SDS011;3896;48.758;8.888;2023-02-28T01:21:09;3.90;;;2.30;;
7707;SDS011;3896;48.758;8.888;2023-02-28T01:23:37;4.03;;;2.50;;
7707;SDS011;3896;48.758;8.888;2023-02-28T01:26:06;6.87;;;2.90;;
7707;SDS011;3896;48.758;8.888;2023-02-28T01:28:33;3.43;;;2.40;;
7707;SDS011;3896;48.758;8.888;2023-02-28T01:30:59;2.90;;;2.50;;
7707;SDS011;3896;48.758;8.888;2023-02-28T01:33:24;5.23;;;3.10;;
7707;SDS011;3896;48.758;8.888;2023-02-28T01:35:57;3.23;;;2.40;;
7707;SDS011;3896;48.758;8.888;2023-02-28T01:38:26;3.00;;;2.47;;
7707;SDS011;3896;48.758;8.888;2023-02-28T01:40:52;2.67;;;2.33;;
7707;SDS011;3896;48.758;8.888;2023-02-28T01:45:51;4.27;;;2.97;;
7707;SDS011;3896;48.758;8.888;2023-02-28T01:48:18;4.13;;;3.07;;
7707;SDS011;3896;48.758;8.888;2023-02-28T01:50:48;4.13;;;2.50;;
7707;SDS011;3896;48.758;8.888;2023-02-28T01:53:15;4.07;;;3.23;;
7707;SDS011;3896;48.758;8.888;2023-02-28T01:55:48;3.03;;;2.73;;
7707;SDS011;3896;48.758;8.888;2023-02-28T01:58:16;2.83;;;2.60;;
7707;SDS011;3896;48.758;8.888;2023-02-28T02:00:42;2.90;;;2.70;;
7707;SDS011;3896;48.758;8.888;2023-02-28T02:03:08;4.73;;;3.00;;
7707;SDS011;3896;48.758;8.888;2023-02-28T02:05:38;3.03;;;2.80;;
7707;SDS011;3896;48.758;8.888;2023-02-28T02:08:05;3.87;;;2.87;;
7707;SDS011;3896;48.758;8.888;2023-02-28T02:10:50;4.40;;;2.80;;
7707;SDS011;3896;48.758;8.888;2023-02-28T02:13:30;3.07;;;2.77;;
7707;SDS011;3896;48.758;8.888;2023-02-28T02:16:23;3.50;;;3.10;;
7707;SDS011;3896;48.758;8.888;2023-02-28T02:22:05;3.40;;;3.07;;
7707;SDS011;3896;48.758;8.888;2023-02-28T02:24:51;3.43;;;2.87;;
7707;SDS011;3896;48.758;8.888;2023-02-28T02:33:10;4.33;;;3.40;;
7707;SDS011;3896;48.758;8.888;2023-02-28T02:38:46;4.00;;;3.17;;
7707;SDS011;3896;48.758;8.888;2023-02-28T02:41:18;4.33;;;3.63;;
7707;SDS011;3896;48.758;8.888;2023-02-28T02:46:26;3.73;;;3.43;;
7707;SDS011;3896;48.758;8.888;2023-02-28T02:48:54;3.70;;;3.30;;
7707;SDS011;3896;48.758;8.888;2023-02-28T02:51:22;5.63;;;2.83;;
7707;SDS011;3896;48.758;8.888;2023-02-28T02:53:51;3.73;;;3.20;;
7707;SDS011;3896;48.758;8.888;2023-02-28T02:56:21;5.13;;;3.47;;
7707;SDS011;3896;48.758;8.888;2023-02-28T02:58:51;7.63;;;4.27;;
7707;SDS011;3896;48.758;8.888;2023-02-28T03:01:21;4.77;;;3.60;;
7707;SDS011;3896;48.758;8.888;2023-02-28T03:03:58;5.83;;;3.37;;
7707;SDS011;3896;48.758;8.888;2023-02-28T03:06:44;3.60;;;3.30;;
7707;SDS011;3896;48.758;8.888;2023-02-28T03:09:10;5.60;;;3.17;;
7707;SDS011;3896;48.758;8.888;2023-02-28T03:11:36;3.77;;;3.40;;
7707;SDS011;3896;48.758;8.888;2023-02-28T03:25:20;4.73;;;3.73;;
7707;SDS011;3896;48.758;8.888;2023-02-28T03:30:15;3.87;;;3.50;;
7707;SDS011;3896;48.758;8.888;2023-02-28T03:32:54;4.47;;;3.77;;
7707;SDS011;3896;48.758;8.888;2023-02-28T03:35:31;4.00;;;2.93;;
7707;SDS011;3896;48.758;8.888;2023-02-28T03:38:05;4.10;;;3.80;;
7707;SDS011;3896;48.758;8.888;2023-02-28T03:40:55;4.27;;;3.90;;
7707;SDS011;3896;48.758;8.888;2023-02-28T03:43:28;3.77;;;3.43;;
7707;SDS011;3896;48.758;8.888;2023-02-28T03:45:58;3.53;;;3.23;;
7707;SDS011;3896;48.758;8.888;2023-02-28T03:48:36;6.40;;;4.20;;
7707;SDS011;3896;48.758;8.888;2023-02-28T03:51:08;5.87;;;3.80;;
7707;SDS011;3896;48.758;8.888;2023-02-28T03:53:40;4.60;;;3.67;;
7707;SDS011;3896;48.758;8.888;2023-02-28T03:56:11;4.47;;;3.50;;
7707;SDS011;3896;48.758;8.888;2023-02-28T03:58:50;5.20;;;3.73;;
7707;SDS011;3896;48.758;8.888;2023-02-28T04:01:35;4.67;;;4.00;;
7707;SDS011;3896;48.758;8.888;2023-02-28T04:04:06;4.37;;;3.60;;
7707;SDS011;3896;48.758;8.888;2023-02-28T04:06:33;4.90;;;4.00;;
7707;SDS011;3896;48.758;8.888;2023-02-28T04:08:59;8.40;;;4.30;;
7707;SDS011;3896;48.758;8.888;2023-02-28T04:14:00;4.10;;;3.80;;
7707;SDS011;3896;48.758;8.888;2023-02-28T04:16:27;3.80;;;3.50;;
7707;SDS011;3896;48.758;8.888;2023-02-28T04:18:53;10.67;;;4.70;;
7707;SDS011;3896;48.758;8.888;2023-02-28T04:21:18;6.23;;;4.63;;
7707;SDS011;3896;48.758;8.888;2023-02-28T04:23:47;6.17;;;4.27;;
7707;SDS011;3896;48.758;8.888;2023-02-28T04:26:12;6.03;;;4.23;;
7707;SDS011;3896;48.758;8.888;2023-02-28T04:28:38;5.63;;;4.20;;
7707;SDS011;3896;48.758;8.888;2023-02-28T04:31:04;5.90;;;4.50;;
7707;SDS011;3896;48.758;8.888;2023-02-28T04:33:30;4.43;;;4.00;;
7707;SDS011;3896;48.758;8.888;2023-02-28T04:36:04;5.03;;;4.27;;
7707;SDS011;3896;48.758;8.888;2023-02-28T04:38:32;4.57;;;4.13;;
7707;SDS011;3896;48.758;8.888;2023-02-28T04:41:02;6.00;;;4.03;;
7707;SDS011;3896;48.758;8.888;2023-02-28T04:43:29;5.60;;;4.43;;
7707;SDS011;3896;48.758;8.888;2023-02-28T04:45:55;5.17;;;4.10;;
7707;SDS011;3896;48.758;8.888;2023-02-28T04:48:23;7.93;;;4.50;;
7707;SDS011;3896;48.758;8.888;2023-02-28T04:50:50;5.50;;;4.37;;
7707;SDS011;3896;48.758;8.888;2023-02-28T04:53:15;5.83;;;4.20;;
7707;SDS011;3896;48.758;8.888;2023-02-28T04:55:41;6.00;;;4.57;;
7707;SDS011;3896;48.758;8.888;2023-02-28T04:58:07;7.03;;;4.80;;
7707;SDS011;3896;48.758;8.888;2023-02-28T05:00:33;8.17;;;4.20;;
7707;SDS011;3896;48.758;8.888;2023-02-28T05:02:58;6.43;;;4.20;;
7707;SDS011;3896;48.758;8.888;2023-02-28T05:05:24;5.57;;;4.50;;
7707;SDS011;3896;48.758;8.888;2023-02-28T05:07:49;7.83;;;4.57;;
7707;SDS011;3896;48.758;8.888;2023-02-28T05:10:15;5.00;;;4.30;;
7707;SDS011;3896;48.758;8.888;2023-02-28T05:12:41;7.57;;;4.63;;
7707;SDS011;3896;48.758;8.888;2023-02-28T05:15:07;6.07;;;4.50;;
7707;SDS011;3896;48.758;8.888;2023-02-28T05:17:37;6.00;;;4.50;;
7707;SDS011;3896;48.758;8.888;2023-02-28T05:20:02;6.23;;;4.30;;
7707;SDS011;3896;48.758;8.888;2023-02-28T05:22:29;6.27;;;4.73;;
7707;SDS011;3896;48.758;8.888;2023-02-28T05:24:55;4.73;;;4.20;;
7707;SDS011;3896;48.758;8.888;2023-02-28T05:27:21;5.53;;;4.53;;
7707;SDS011;3896;48.758;8.888;2023-02-28T05:29:46;6.53;;;4.20;;
7707;SDS011;3896;48.758;8.888;2023-02-28T05:32:12;6.17;;;4.27;;
7707;SDS011;3896;48.758;8.888;2023-02-28T05:34:38;6.73;;;4.97;;
7707;SDS011;3896;48.758;8.888;2023-02-28T05:37:04;4.63;;;4.23;;
7707;SDS011;3896;48.758;8.888;2023-02-28T05:39:31;8.10;;;4.50;;
7707;SDS011;3896;48.758;8.888;2023-02-28T05:41:58;6.57;;;4.47;;
7707;SDS011;3896;48.758;8.888;2023-02-28T05:44:23;8.90;;;5.13;;
7707;SDS011;3896;48.758;8.888;2023-02-28T05:46:49;4.53;;;4.13;;
7707;SDS011;3896;48.758;8.888;2023-02-28T05:49:15;9.07;;;4.90;;
7707;SDS011;3896;48.758;8.888;2023-02-28T05:51:40;6.00;;;5.20;;
7707;SDS011;3896;48.758;8.888;2023-02-28T05:54:06;7.47;;;4.93;;
7707;SDS011;3896;48.758;8.888;2023-02-28T05:56:32;7.20;;;5.30;;
7707;SDS011;3896;48.758;8.888;2023-02-28T05:58:59;5.87;;;4.80;;
7707;SDS011;3896;48.758;8.888;2023-02-28T06:01:32;7.77;;;5.07;;
7707;SDS011;3896;48.758;8.888;2023-02-28T06:04:01;8.63;;;4.83;;
7707;SDS011;3896;48.758;8.888;2023-02-28T06:06:27;10.60;;;4.77;;
7707;SDS011;3896;48.758;8.888;2023-02-28T06:08:54;6.73;;;5.07;;
7707;SDS011;3896;48.758;8.888;2023-02-28T06:11:20;5.57;;;4.97;;
7707;SDS011;3896;48.758;8.888;2023-02-28T06:13:46;8.80;;;5.63;;
7707;SDS011;3896;48.758;8.888;2023-02-28T06:16:12;5.77;;;5.17;;
7707;SDS011;3896;48.758;8.888;2023-02-28T06:18:38;7.50;;;5.13;;
7707;SDS011;3896;48.758;8.888;2023-02-28T06:21:04;7.07;;;5.23;;
7707;SDS011;3896;48.758;8.888;2023-02-28T06:23:29;5.20;;;4.40;;
7707;SDS011;3896;48.758;8.888;2023-02-28T06:25:55;9.37;;;5.63;;
7707;SDS011;3896;48.758;8.888;2023-02-28T06:28:23;7.97;;;5.67;;
7707;SDS011;3896;48.758;8.888;2023-02-28T06:30:50;5.23;;;4.60;;
7707;SDS011;3896;48.758;8.888;2023-02-28T06:33:15;8.23;;;5.77;;
7707;SDS011;3896;48.758;8.888;2023-02-28T06:35:43;7.33;;;5.40;;
7707;SDS011;3896;48.758;8.888;2023-02-28T06:38:11;6.43;;;4.93;;
7707;SDS011;3896;48.758;8.888;2023-02-28T06:40:36;6.70;;;4.93;;
7707;SDS011;3896;48.758;8.888;2023-02-28T06:43:02;7.83;;;5.43;;
7707;SDS011;3896;48.758;8.888;2023-02-28T06:45:28;8.80;;;5.50;;
7707;SDS011;3896;48.758;8.888;2023-02-28T06:47:55;7.70;;;5.57;;
7707;SDS011;3896;48.758;8.888;2023-02-28T06:50:20;7.40;;;5.10;;
7707;SDS011;3896;48.758;8.888;2023-02-28T06:52:46;8.33;;;5.50;;
7707;SDS011;3896;48.758;8.888;2023-02-28T06:55:12;6.97;;;5.30;;
7707;SDS011;3896;48.758;8.888;2023-02-28T06:57:37;6.67;;;4.87;;
7707;SDS011;3896;48.758;8.888;2023-02-28T07:00:05;6.37;;;4.70;;
7707;SDS011;3896;48.758;8.888;2023-02-28T07:02:33;7.30;;;5.13;;
7707;SDS011;3896;48.758;8.888;2023-02-28T07:04:59;9.87;;;4.70;;
7707;SDS011;3896;48.758;8.888;2023-02-28T07:07:25;9.63;;;5.97;;
7707;SDS011;3896;48.758;8.888;2023-02-28T07:09:51;7.10;;;5.10;;
7707;SDS011;3896;48.758;8.888;2023-02-28T07:12:16;7.63;;;4.80;;
7707;SDS011;3896;48.758;8.888;2023-02-28T07:14:42;10.50;;;6.77;;
7707;SDS011;3896;48.758;8.888;2023-02-28T07:17:08;8.63;;;5.63;;
7707;SDS011;3896;48.758;8.888;2023-02-28T07:19:36;7.77;;;5.63;;
7707;SDS011;3896;48.758;8.888;2023-02-28T07:22:01;7.33;;;5.07;;
7707;SDS011;3896;48.758;8.888;2023-02-28T07:24:27;8.17;;;5.53;;
7707;SDS011;3896;48.758;8.888;2023-02-28T07:26:54;10.93;;;5.40;;
7707;SDS011;3896;48.758;8.888;2023-02-28T07:29:21;6.30;;;5.70;;
7707;SDS011;3896;48.758;8.888;2023-02-28T07:31:46;10.47;;;6.20;;
7707;SDS011;3896;48.758;8.888;2023-02-28T07:34:12;11.30;;;6.33;;
7707;SDS011;3896;48.758;8.888;2023-02-28T07:36:38;11.93;;;6.77;;
7707;SDS011;3896;48.758;8.888;2023-02-28T07:39:04;7.20;;;5.70;;
7707;SDS011;3896;48.758;8.888;2023-02-28T07:41:30;10.10;;;6.13;;
7707;SDS011;3896;48.758;8.888;2023-02-28T07:43:58;6.70;;;4.97;;
7707;SDS011;3896;48.758;8.888;2023-02-28T07:46:24;8.57;;;4.73;;
7707;SDS011;3896;48.758;8.888;2023-02-28T07:48:50;6.33;;;4.87;;
7707;SDS011;3896;48.758;8.888;2023-02-28T07:51:16;10.63;;;5.70;;
7707;SDS011;3896;48.758;8.888;2023-02-28T07:53:42;7.60;;;5.30;;
7707;SDS011;3896;48.758;8.888;2023-02-28T07:56:07;9.07;;;5.67;;
7707;SDS011;3896;48.758;8.888;2023-02-28T07:58:33;9.57;;;6.20;;
7707;SDS011;3896;48.758;8.888;2023-02-28T08:01:06;7.40;;;5.83;;
7707;SDS011;3896;48.758;8.888;2023-02-28T08:03:33;9.00;;;6.07;;
7707;SDS011;3896;48.758;8.888;2023-02-28T08:05:58;8.03;;;5.23;;
7707;SDS011;3896;48.758;8.888;2023-02-28T08:08:24;9.53;;;5.67;;
7707;SDS011;3896;48.758;8.888;2023-02-28T08:10:54;10.07;;;6.30;;
7707;SDS011;3896;48.758;8.888;2023-02-28T08:13:19;10.43;;;6.03;;
7707;SDS011;3896;48.758;8.888;2023-02-28T08:15:45;7.07;;;5.87;;
7707;SDS011;3896;48.758;8.888;2023-02-28T08:18:12;8.40;;;5.47;;
7707;SDS011;3896;48.758;8.888;2023-02-28T08:20:37;7.57;;;6.03;;
7707;SDS011;3896;48.758;8.888;2023-02-28T08:23:03;9.97;;;6.10;;
7707;SDS011;3896;48.758;8.888;2023-02-28T08:25:28;12.23;;;6.77;;
7707;SDS011;3896;48.758;8.888;2023-02-28T08:27:54;9.57;;;6.07;;
7707;SDS011;3896;48.758;8.888;2023-02-28T08:30:19;8.77;;;6.03;;
7707;SDS011;3896;48.758;8.888;2023-02-28T08:32:45;9.27;;;5.70;;
7707;SDS011;3896;48.758;8.888;2023-02-28T08:35:10;7.17;;;5.17;;
7707;SDS011;3896;48.758;8.888;2023-02-28T08:37:36;6.43;;;5.40;;
7707;SDS011;3896;48.758;8.888;2023-02-28T08:40:02;8.03;;;5.80;;
7707;SDS011;3896;48.758;8.888;2023-02-28T08:42:29;10.40;;;5.67;;
7707;SDS011;3896;48.758;8.888;2023-02-28T08:44:54;9.73;;;6.27;;
7707;SDS011;3896;48.758;8.888;2023-02-28T08:47:20;9.27;;;6.40;;
7707;SDS011;3896;48.758;8.888;2023-02-28T08:49:45;9.07;;;5.90;;
7707;SDS011;3896;48.758;8.888;2023-02-28T08:52:11;9.67;;;6.60;;
7707;SDS011;3896;48.758;8.888;2023-02-28T08:54:36;7.37;;;6.00;;
7707;SDS011;3896;48.758;8.888;2023-02-28T08:57:02;11.90;;;6.03;;
7707;SDS011;3896;48.758;8.888;2023-02-28T08:59:28;9.00;;;6.43;;
7707;SDS011;3896;48.758;8.888;2023-02-28T09:01:54;8.57;;;6.00;;
7707;SDS011;3896;48.758;8.888;2023-02-28T09:04:20;9.90;;;6.30;;
7707;SDS011;3896;48.758;8.888;2023-02-28T09:06:45;8.47;;;6.07;;
7707;SDS011;3896;48.758;8.888;2023-02-28T09:09:13;8.23;;;6.07;;
7707;SDS011;3896;48.758;8.888;2023-02-28T09:11:39;8.87;;;6.13;;
7707;SDS011;3896;48.758;8.888;2023-02-28T09:14:04;10.50;;;6.97;;
7707;SDS011;3896;48.758;8.888;2023-02-28T09:16:33;12.87;;;7.77;;
7707;SDS011;3896;48.758;8.888;2023-02-28T09:18:59;7.97;;;5.87;;
7707;SDS011;3896;48.758;8.888;2023-02-28T09:21:25;9.77;;;6.70;;
7707;SDS011;3896;48.758;8.888;2023-02-28T09:23:51;8.33;;;6.43;;
7707;SDS011;3896;48.758;8.888;2023-02-28T09:26:18;9.37;;;6.97;;
7707;SDS011;3896;48.758;8.888;2023-02-28T09:28:46;12.37;;;6.87;;
7707;SDS011;3896;48.758;8.888;2023-02-28T09:31:13;9.67;;;6.30;;
7707;SDS011;3896;48.758;8.888;2023-02-28T09:33:40;13.17;;;6.57;;
7707;SDS011;3896;48.758;8.888;2023-02-28T09:36:06;9.47;;;6.60;;
7707;SDS011;3896;48.758;8.888;2023-02-28T09:38:32;8.40;;;6.07;;
7707;SDS011;3896;48.758;8.888;2023-02-28T09:41:01;8.07;;;6.53;;
7707;SDS011;3896;48.758;8.888;2023-02-28T09:43:32;12.53;;;7.33;;
7707;SDS011;3896;48.758;8.888;2023-02-28T09:48:53;8.47;;;5.93;;
7707;SDS011;3896;48.758;8.888;2023-02-28T09:51:27;9.00;;;6.20;;
7707;SDS011;3896;48.758;8.888;2023-02-28T09:53:53;9.53;;;7.13;;
7707;SDS011;3896;48.758;8.888;2023-02-28T09:56:24;11.23;;;7.80;;
7707;SDS011;3896;48.758;8.888;2023-02-28T09:59:01;11.93;;;7.27;;
7707;SDS011;3896;48.758;8.888;2023-02-28T10:07:27;9.93;;;7.00;;
7707;SDS011;3896;48.758;8.888;2023-02-28T10:13:05;8.80;;;6.20;;
7707;SDS011;3896;48.758;8.888;2023-02-28T10:15:38;13.53;;;6.63;;
7707;SDS011;3896;48.758;8.888;2023-02-28T10:18:06;10.03;;;7.23;;
7707;SDS011;3896;48.758;8.888;2023-02-28T10:20:39;9.00;;;6.83;;
7707;SDS011;3896;48.758;8.888;2023-02-28T10:23:23;9.07;;;6.20;;
7707;SDS011;3896;48.758;8.888;2023-02-28T10:26:03;8.27;;;6.77;;
7707;SDS011;3896;48.758;8.888;2023-02-28T10:28:36;9.83;;;6.83;;
7707;SDS011;3896;48.758;8.888;2023-02-28T10:31:01;10.57;;;7.57;;
7707;SDS011;3896;48.758;8.888;2023-02-28T10:33:29;9.37;;;6.60;;
7707;SDS011;3896;48.758;8.888;2023-02-28T10:35:57;6.87;;;5.60;;
7707;SDS011;3896;48.758;8.888;2023-02-28T10:38:32;12.83;;;7.17;;
7707;SDS011;3896;48.758;8.888;2023-02-28T10:41:04;9.13;;;6.33;;
7707;SDS011;3896;48.758;8.888;2023-02-28T10:43:30;8.40;;;6.13;;
7707;SDS011;3896;48.758;8.888;2023-02-28T10:46:01;10.23;;;6.67;;
7707;SDS011;3896;48.758;8.888;2023-02-28T10:48:34;10.10;;;6.80;;
7707;SDS011;3896;48.758;8.888;2023-02-28T10:51:18;8.17;;;6.03;;
7707;SDS011;3896;48.758;8.888;2023-02-28T10:53:51;10.93;;;6.77;;
7707;SDS011;3896;48.758;8.888;2023-02-28T11:01:44;12.00;;;6.83;;
7707;SDS011;3896;48.758;8.888;2023-02-28T11:06:58;10.80;;;7.40;;
7707;SDS011;3896;48.758;8.888;2023-02-28T11:09:30;9.93;;;6.93;;
7707;SDS011;3896;48.758;8.888;2023-02-28T11:12:04;9.50;;;7.27;;
7707;SDS011;3896;48.758;8.888;2023-02-28T11:14:35;10.53;;;7.10;;
7707;SDS011;3896;48.758;8.888;2023-02-28T11:17:22;11.13;;;8.00;;
7707;SDS011;3896;48.758;8.888;2023-02-28T11:19:54;13.13;;;7.70;;
7707;SDS011;3896;48.758;8.888;2023-02-28T11:22:23;10.80;;;6.67;;
7707;SDS011;3896;48.758;8.888;2023-02-28T11:24:53;8.97;;;6.53;;
7707;SDS011;3896;48.758;8.888;2023-02-28T11:29:57;10.27;;;7.00;;
7707;SDS011;3896;48.758;8.888;2023-02-28T11:32:24;10.00;;;7.03;;
7707;SDS011;3896;48.758;8.888;2023-02-28T11:37:34;11.70;;;7.77;;
7707;SDS011;3896;48.758;8.888;2023-02-28T11:40:00;8.43;;;6.57;;
7707;SDS011;3896;48.758;8.888;2023-02-28T11:42:44;8.50;;;6.43;;
7707;SDS011;3896;48.758;8.888;2023-02-28T11:45:30;10.83;;;6.33;;
7707;SDS011;3896;48.758;8.888;2023-02-28T11:54:05;11.90;;;8.20;;
7707;SDS011;3896;48.758;8.888;2023-02-28T11:59:22;7.37;;;5.80;;
7707;SDS011;3896;48.758;8.888;2023-02-28T12:02:20;10.13;;;7.30;;
7707;SDS011;3896;48.758;8.888;2023-02-28T12:07:47;8.97;;;7.20;;
7707;SDS011;3896;48.758;8.888;2023-02-28T12:10:25;13.23;;;7.80;;
7707;SDS011;3896;48.758;8.888;2023-02-28T12:17:58;10.60;;;7.53;;
7707;SDS011;3896;48.758;8.888;2023-02-28T12:29:21;9.80;;;7.83;;
7707;SDS011;3896;48.758;8.888;2023-02-28T12:34:34;10.50;;;7.90;;
7707;SDS011;3896;48.758;8.888;2023-02-28T12:37:06;9.03;;;7.57;;
7707;SDS011;3896;48.758;8.888;2023-02-28T12:39:40;13.93;;;9.67;;
7707;SDS011;3896;48.758;8.888;2023-02-28T12:42:11;13.23;;;8.47;;
7707;SDS011;3896;48.758;8.888;2023-02-28T12:44:46;10.37;;;7.73;;
7707;SDS011;3896;48.758;8.888;2023-02-28T12:47:15;12.53;;;8.80;;
7707;SDS011;3896;48.758;8.888;2023-02-28T12:49:46;11.07;;;8.40;;
7707;SDS011;3896;48.758;8.888;2023-02-28T12:55:30;11.03;;;7.87;;
7707;SDS011;3896;48.758;8.888;2023-02-28T12:58:37;9.10;;;7.17;;
7707;SDS011;3896;48.758;8.888;2023-02-28T13:01:22;10.47;;;7.63;;
7707;SDS011;3896;48.758;8.888;2023-02-28T13:04:08;8.43;;;6.20;;
7707;SDS011;3896;48.758;8.888;2023-02-28T13:09:20;8.43;;;7.50;;
7707;SDS011;3896;48.758;8.888;2023-02-28T13:11:47;8.90;;;7.07;;
7707;SDS011;3896;48.758;8.888;2023-02-28T13:14:23;9.43;;;7.73;;
7707;SDS011;3896;48.758;8.888;2023-02-28T13:19:35;10.27;;;7.43;;
7707;SDS011;3896;48.758;8.888;2023-02-28T13:24:55;9.47;;;7.50;;
7707;SDS011;3896;48.758;8.888;2023-02-28T13:27:24;10.13;;;6.63;;
7707;SDS011;3896;48.758;8.888;2023-02-28T13:30:02;8.20;;;6.80;;
7707;SDS011;3896;48.758;8.888;2023-02-28T13:33:38;10.50;;;7.13;;
7707;SDS011;3896;48.758;8.888;2023-02-28T13:36:22;9.27;;;6.97;;
7707;SDS011;3896;48.758;8.888;2023-02-28T13:44:05;11.53;;;8.33;;
7707;SDS011;3896;48.758;8.888;2023-02-28T13:46:33;7.80;;;6.80;;
7707;SDS011;3896;48.758;8.888;2023-02-28T13:51:48;8.00;;;6.37;;
7707;SDS011;3896;48.758;8.888;2023-02-28T13:57:20;8.67;;;7.07;;
7707;SDS011;3896;48.758;8.888;2023-02-28T14:02:44;7.77;;;6.97;;
7707;SDS011;3896;48.758;8.888;2023-02-28T14:05:24;7.50;;;6.70;;
7707;SDS011;3896;48.758;8.888;2023-02-28T14:07:52;8.03;;;7.20;;
7707;SDS011;3896;48.758;8.888;2023-02-28T14:10:28;7.87;;;6.33;;
7707;SDS011;3896;48.758;8.888;2023-02-28T14:26:51;10.20;;;7.20;;
7707;SDS011;3896;48.758;8.888;2023-02-28T14:32:21;8.03;;;6.90;;
7707;SDS011;3896;48.758;8.888;2023-02-28T14:37:44;8.73;;;7.00;;
7707;SDS011;3896;48.758;8.888;2023-02-28T14:40:15;8.33;;;6.80;;
7707;SDS011;3896;48.758;8.888;2023-02-28T14:43:00;7.73;;;6.47;;
7707;SDS011;3896;48.758;8.888;2023-02-28T14:45:31;8.57;;;7.03;;
7707;SDS011;3896;48.758;8.888;2023-02-28T14:47:58;8.60;;;6.43;;
7707;SDS011;3896;48.758;8.888;2023-02-28T14:50:36;8.80;;;7.40;;
7707;SDS011;3896;48.758;8.888;2023-02-28T14:53:02;8.63;;;7.43;;
7707;SDS011;3896;48.758;8.888;2023-02-28T14:55:29;8.47;;;7.33;;
7707;SDS011;3896;48.758;8.888;2023-02-28T14:58:01;9.07;;;6.70;;
7707;SDS011;3896;48.758;8.888;2023-02-28T15:00:35;8.50;;;6.77;;
7707;SDS011;3896;48.758;8.888;2023-02-28T15:06:03;9.17;;;6.90;;
7707;SDS011;3896;48.758;8.888;2023-02-28T15:08:30;9.23;;;6.80;;
7707;SDS011;3896;48.758;8.888;2023-02-28T15:13:44;8.47;;;7.10;;
7707;SDS011;3896;48.758;8.888;2023-02-28T15:16:17;8.40;;;7.10;;
7707;SDS011;3896;48.758;8.888;2023-02-28T15:18:46;8.53;;;6.80;;
7707;SDS011;3896;48.758;8.888;2023-02-28T15:21:15;9.20;;;7.23;;
7707;SDS011;3896;48.758;8.888;2023-02-28T15:23:44;7.87;;;6.70;;
7707;SDS011;3896;48.758;8.888;2023-02-28T15:26:14;8.73;;;7.43;;
7707;SDS011;3896;48.758;8.888;2023-02-28T15:28:42;7.67;;;6.53;;
7707;SDS011;3896;48.758;8.888;2023-02-28T15:31:21;8.23;;;7.00;;
7707;SDS011;3896;48.758;8.888;2023-02-28T15:33:58;8.03;;;7.10;;
7707;SDS011;3896;48.758;8.888;2023-02-28T15:36:30;9.00;;;7.30;;
7707;SDS011;3896;48.758;8.888;2023-02-28T15:38:58;7.77;;;7.07;;
7707;SDS011;3896;48.758;8.888;2023-02-28T15:41:26;9.33;;;6.73;;
7707;SDS011;3896;48.758;8.888;2023-02-28T15:49:26;11.63;;;7.40;;
7707;SDS011;3896;48.758;8.888;2023-02-28T15:51:53;9.50;;;7.13;;
7707;SDS011;3896;48.758;8.888;2023-02-28T15:54:23;8.77;;;7.00;;
7707;SDS011;3896;48.758;8.888;2023-02-28T15:56:57;9.80;;;7.07;;
7707;SDS011;3896;48.758;8.888;2023-02-28T15:59:38;11.17;;;7.17;;
7707;SDS011;3896;48.758;8.888;2023-02-28T16:04:35;9.53;;;6.40;;
7707;SDS011;3896;48.758;8.888;2023-02-28T16:07:02;9.33;;;7.27;;
7707;SDS011;3896;48.758;8.888;2023-02-28T16:09:29;9.60;;;7.57;;
7707;SDS011;3896;48.758;8.888;2023-02-28T16:11:56;8.57;;;7.23;;
7707;SDS011;3896;48.758;8.888;2023-02-28T16:14:30;9.03;;;7.53;;
7707;SDS011;3896;48.758;8.888;2023-02-28T16:16:57;8.57;;;7.00;;
7707;SDS011;3896;48.758;8.888;2023-02-28T16:19:28;8.93;;;7.33;;
7707;SDS011;3896;48.758;8.888;2023-02-28T16:21:54;9.50;;;7.03;;
7707;SDS011;3896;48.758;8.888;2023-02-28T16:24:19;8.57;;;7.17;;
7707;SDS011;3896;48.758;8.888;2023-02-28T16:26:46;9.83;;;8.10;;
7707;SDS011;3896;48.758;8.888;2023-02-28T16:29:19;9.00;;;6.80;;
7707;SDS011;3896;48.758;8.888;2023-02-28T16:31:51;10.80;;;6.93;;
7707;SDS011;3896;48.758;8.888;2023-02-28T16:34:18;13.30;;;7.43;;
7707;SDS011;3896;48.758;8.888;2023-02-28T16:36:45;9.30;;;7.60;;
7707;SDS011;3896;48.758;8.888;2023-02-28T16:39:12;10.33;;;7.60;;
7707;SDS011;3896;48.758;8.888;2023-02-28T16:41:38;17.20;;;7.20;;
7707;SDS011;3896;48.758;8.888;2023-02-28T16:44:10;11.00;;;8.10;;
7707;SDS011;3896;48.758;8.888;2023-02-28T16:46:38;11.87;;;7.73;;
7707;SDS011;3896;48.758;8.888;2023-02-28T16:49:04;10.57;;;7.80;;
7707;SDS011;3896;48.758;8.888;2023-02-28T16:51:35;10.73;;;7.13;;
7707;SDS011;3896;48.758;8.888;2023-02-28T16:54:00;12.33;;;6.93;;
7707;SDS011;3896;48.758;8.888;2023-02-28T16:56:26;9.47;;;8.20;;
7707;SDS011;3896;48.758;8.888;2023-02-28T16:58:52;11.80;;;7.50;;
7707;SDS011;3896;48.758;8.888;2023-02-28T17:01:24;8.63;;;7.03;;
7707;SDS011;3896;48.758;8.888;2023-02-28T17:03:50;10.00;;;7.60;;
7707;SDS011;3896;48.758;8.888;2023-02-28T17:06:19;10.33;;;8.47;;
7707;SDS011;3896;48.758;8.888;2023-02-28T17:08:48;8.37;;;6.73;;
7707;SDS011;3896;48.758;8.888;2023-02-28T17:11:14;8.07;;;7.17;;
7707;SDS011;3896;48.758;8.888;2023-02-28T17:13:41;9.43;;;7.83;;
7707;SDS011;3896;48.758;8.888;2023-02-28T17:16:09;10.13;;;7.43;;
7707;SDS011;3896;48.758;8.888;2023-02-28T17:18:44;12.53;;;8.17;;
7707;SDS011;3896;48.758;8.888;2023-02-28T17:21:14;10.87;;;8.03;;
7707;SDS011;3896;48.758;8.888;2023-02-28T17:23:40;10.40;;;7.97;;
7707;SDS011;3896;48.758;8.888;2023-02-28T17:26:06;9.23;;;7.57;;
7707;SDS011;3896;48.758;8.888;2023-02-28T17:28:34;9.13;;;8.00;;
7707;SDS011;3896;48.758;8.888;2023-02-28T17:31:00;10.37;;;8.53;;
7707;SDS011;3896;48.758;8.888;2023-02-28T17:33:25;10.87;;;7.87;;
7707;SDS011;3896;48.758;8.888;2023-02-28T17:35:51;10.33;;;7.83;;
7707;SDS011;3896;48.758;8.888;2023-02-28T17:38:17;12.27;;;9.00;;
7707;SDS011;3896;48.758;8.888;2023-02-28T17:40:44;14.87;;;8.60;;
7707;SDS011;3896;48.758;8.888;2023-02-28T17:43:10;12.00;;;8.33;;
7707;SDS011;3896;48.758;8.888;2023-02-28T17:45:35;11.23;;;8.43;;
7707;SDS011;3896;48.758;8.888;2023-02-28T17:48:01;11.10;;;8.57;;
7707;SDS011;3896;48.758;8.888;2023-02-28T17:50:27;17.10;;;9.17;;